sensor_id;sensor_type;location;lat;lon;timestamp;P1;durP1;ratioP1;P2;durP2;ratioP2
38901;SDS011;24661;53.566;9.910;2023-03-31T00:00:24;25.00;;;5.10;;
38901;SDS011;24661;53.566;9.910;2023-03-31T00:02:50;36.57;;;5.23;;
38901;SDS011;24661;53.566;9.910;2023-03-31T00:05:18;20.17;;;4.60;;
38901;SDS011;24661;53.566;9.910;2023-03-31T00:07:45;23.90;;;6.23;;
38901;SDS011;24661;53.566;9.910;2023-03-31T00:10:13;18.37;;;3.63;;
38901;SDS011;24661;53.566;9.910;2023-03-31T00:12:43;26.10;;;5.23;;
38901;SDS011;24661;53.566;9.910;2023-03-31T00:15:09;34.77;;;5.40;;
38901;SDS011;24661;53.566;9.910;2023-03-31T00:17:34;20.80;;;4.63;;
38901;SDS011;24661;53.566;9.910;2023-03-31T00:20:00;23.13;;;3.80;;
38901;SDS011;24661;53.566;9.910;2023-03-31T00:22:28;19.97;;;4.80;;
38901;SDS011;24661;53.566;9.910;2023-03-31T00:24:55;25.70;;;6.30;;
38901;SDS011;24661;53.566;9.910;2023-03-31T00:27:21;21.23;;;4.50;;
38901;SDS011;24661;53.566;9.910;2023-03-31T00:29:46;18.53;;;3.97;;
38901;SDS011;24661;53.566;9.910;2023-03-31T00:32:14;22.20;;;4.90;;
38901;SDS011;24661;53.566;9.910;2023-03-31T00:34:40;22.83;;;4.27;;
38901;SDS011;24661;53.566;9.910;2023-03-31T00:37:06;26.40;;;4.83;;
38901;SDS011;24661;53.566;9.910;2023-03-31T00:39:33;26.13;;;4.60;;
38901;SDS011;24661;53.566;9.910;2023-03-31T00:42:03;16.37;;;3.57;;
38901;SDS011;24661;53.566;9.910;2023-03-31T00:44:30;26.80;;;4.00;;
38901;SDS011;24661;53.566;9.910;2023-03-31T00:47:02;16.30;;;3.73;;
38901;SDS011;24661;53.566;9.910;2023-03-31T00:49:41;24.40;;;4.57;;
38901;SDS011;24661;53.566;9.910;2023-03-31T00:52:17;20.37;;;4.10;;
38901;SDS011;24661;53.566;9.910;2023-03-31T00:54:55;24.00;;;4.00;;
38901;SDS011;24661;53.566;9.910;2023-03-31T00:57:26;20.30;;;4.37;;
38901;SDS011;24661;53.566;9.910;2023-03-31T00:59:57;18.80;;;3.53;;
38901;SDS011;24661;53.566;9.910;2023-03-31T01:02:26;22.90;;;4.30;;
38901;SDS011;24661;53.566;9.910;2023-03-31T01:04:54;23.10;;;4.47;;
38901;SDS011;24661;53.566;9.910;2023-03-31T01:07:34;25.17;;;3.57;;
38901;SDS011;24661;53.566;9.910;2023-03-31T01:10:04;22.47;;;4.13;;
38901;SDS011;24661;53.566;9.910;2023-03-31T01:12:31;18.10;;;4.73;;
38901;SDS011;24661;53.566;9.910;2023-03-31T01:14:58;22.27;;;3.90;;
38901;SDS011;24661;53.566;9.910;2023-03-31T01:17:25;21.07;;;4.40;;
38901;SDS011;24661;53.566;9.910;2023-03-31T01:20:02;19.33;;;3.87;;
38901;SDS011;24661;53.566;9.910;2023-03-31T01:39:46;24.00;;;4.57;;
38901;SDS011;24661;53.566;9.910;2023-03-31T01:48:25;25.57;;;4.63;;
38901;SDS011;24661;53.566;9.910;2023-03-31T01:51:02;20.50;;;4.87;;
38901;SDS011;24661;53.566;9.910;2023-03-31T01:56:45;14.27;;;3.67;;
38901;SDS011;24661;53.566;9.910;2023-03-31T01:59:17;22.47;;;5.83;;
38901;SDS011;24661;53.566;9.910;2023-03-31T02:04:23;30.03;;;4.47;;
38901;SDS011;24661;53.566;9.910;2023-03-31T02:07:00;14.70;;;4.10;;
38901;SDS011;24661;53.566;9.910;2023-03-31T02:09:52;13.60;;;3.10;;
38901;SDS011;24661;53.566;9.910;2023-03-31T02:12:25;20.00;;;4.00;;
38901;SDS011;24661;53.566;9.910;2023-03-31T02:14:53;14.27;;;4.10;;
38901;SDS011;24661;53.566;9.910;2023-03-31T02:17:22;18.27;;;4.13;;
38901;SDS011;24661;53.566;9.910;2023-03-31T02:20:06;18.80;;;3.47;;
38901;SDS011;24661;53.566;9.910;2023-03-31T02:22:40;20.33;;;3.83;;
38901;SDS011;24661;53.566;9.910;2023-03-31T02:25:10;14.37;;;4.57;;
38901;SDS011;24661;53.566;9.910;2023-03-31T02:27:39;10.60;;;3.57;;
38901;SDS011;24661;53.566;9.910;2023-03-31T02:30:07;7.40;;;3.63;;
38901;SDS011;24661;53.566;9.910;2023-03-31T02:32:34;23.67;;;5.93;;
38901;SDS011;24661;53.566;9.910;2023-03-31T02:35:03;19.17;;;4.83;;
38901;SDS011;24661;53.566;9.910;2023-03-31T02:37:30;16.10;;;5.00;;
38901;SDS011;24661;53.566;9.910;2023-03-31T02:39:56;19.27;;;4.27;;
38901;SDS011;24661;53.566;9.910;2023-03-31T02:42:25;21.10;;;4.70;;
38901;SDS011;24661;53.566;9.910;2023-03-31T02:44:51;15.23;;;4.27;;
38901;SDS011;24661;53.566;9.910;2023-03-31T02:47:17;20.23;;;5.03;;
38901;SDS011;24661;53.566;9.910;2023-03-31T02:49:47;17.03;;;5.23;;
38901;SDS011;24661;53.566;9.910;2023-03-31T03:03:40;15.90;;;5.20;;
38901;SDS011;24661;53.566;9.910;2023-03-31T03:11:44;15.77;;;5.03;;
38901;SDS011;24661;53.566;9.910;2023-03-31T03:19:55;21.00;;;6.70;;
38901;SDS011;24661;53.566;9.910;2023-03-31T03:22:24;16.50;;;6.37;;
38901;SDS011;24661;53.566;9.910;2023-03-31T03:24:49;12.53;;;5.27;;
38901;SDS011;24661;53.566;9.910;2023-03-31T03:27:16;19.37;;;5.67;;
38901;SDS011;24661;53.566;9.910;2023-03-31T03:29:42;21.13;;;5.20;;
38901;SDS011;24661;53.566;9.910;2023-03-31T03:32:08;16.53;;;4.87;;
38901;SDS011;24661;53.566;9.910;2023-03-31T03:34:34;16.60;;;5.23;;
38901;SDS011;24661;53.566;9.910;2023-03-31T03:36:59;16.60;;;5.00;;
38901;SDS011;24661;53.566;9.910;2023-03-31T03:39:25;17.30;;;5.23;;
38901;SDS011;24661;53.566;9.910;2023-03-31T03:41:51;18.37;;;4.87;;
38901;SDS011;24661;53.566;9.910;2023-03-31T03:44:16;15.33;;;4.93;;
38901;SDS011;24661;53.566;9.910;2023-03-31T03:46:42;24.97;;;4.70;;
38901;SDS011;24661;53.566;9.910;2023-03-31T03:49:07;13.03;;;4.87;;
38901;SDS011;24661;53.566;9.910;2023-03-31T03:51:33;19.67;;;4.90;;
38901;SDS011;24661;53.566;9.910;2023-03-31T03:53:58;15.80;;;5.70;;
38901;SDS011;24661;53.566;9.910;2023-03-31T03:56:24;15.07;;;4.87;;
38901;SDS011;24661;53.566;9.910;2023-03-31T03:58:50;17.93;;;4.57;;
38901;SDS011;24661;53.566;9.910;2023-03-31T04:01:16;11.23;;;5.37;;
38901;SDS011;24661;53.566;9.910;2023-03-31T04:03:42;12.53;;;4.87;;
38901;SDS011;24661;53.566;9.910;2023-03-31T04:06:08;9.87;;;4.83;;
38901;SDS011;24661;53.566;9.910;2023-03-31T04:08:33;11.60;;;4.93;;
38901;SDS011;24661;53.566;9.910;2023-03-31T04:10:59;14.33;;;6.03;;
38901;SDS011;24661;53.566;9.910;2023-03-31T04:13:25;11.90;;;5.57;;
38901;SDS011;24661;53.566;9.910;2023-03-31T04:15:50;14.50;;;5.27;;
38901;SDS011;24661;53.566;9.910;2023-03-31T04:18:16;8.33;;;3.87;;
38901;SDS011;24661;53.566;9.910;2023-03-31T04:20:51;12.27;;;4.77;;
38901;SDS011;24661;53.566;9.910;2023-03-31T04:23:30;14.87;;;5.07;;
38901;SDS011;24661;53.566;9.910;2023-03-31T04:25:56;9.80;;;5.60;;
38901;SDS011;24661;53.566;9.910;2023-03-31T04:28:22;13.67;;;4.87;;
38901;SDS011;24661;53.566;9.910;2023-03-31T04:30:50;10.30;;;5.30;;
38901;SDS011;24661;53.566;9.910;2023-03-31T04:33:19;10.40;;;4.70;;
38901;SDS011;24661;53.566;9.910;2023-03-31T04:35:45;16.20;;;5.67;;
38901;SDS011;24661;53.566;9.910;2023-03-31T04:38:20;16.87;;;5.87;;
38901;SDS011;24661;53.566;9.910;2023-03-31T04:40:49;16.37;;;7.17;;
38901;SDS011;24661;53.566;9.910;2023-03-31T04:43:16;20.13;;;7.03;;
38901;SDS011;24661;53.566;9.910;2023-03-31T04:45:44;16.27;;;6.33;;
38901;SDS011;24661;53.566;9.910;2023-03-31T04:48:09;18.27;;;6.57;;
38901;SDS011;24661;53.566;9.910;2023-03-31T04:50:35;13.80;;;6.63;;
38901;SDS011;24661;53.566;9.910;2023-03-31T04:53:02;16.63;;;7.83;;
38901;SDS011;24661;53.566;9.910;2023-03-31T04:55:29;25.00;;;7.77;;
38901;SDS011;24661;53.566;9.910;2023-03-31T04:57:55;20.80;;;6.87;;
38901;SDS011;24661;53.566;9.910;2023-03-31T05:00:21;14.60;;;5.93;;
38901;SDS011;24661;53.566;9.910;2023-03-31T05:02:47;11.43;;;6.70;;
38901;SDS011;24661;53.566;9.910;2023-03-31T05:05:13;14.93;;;6.53;;
38901;SDS011;24661;53.566;9.910;2023-03-31T05:07:39;16.33;;;7.13;;
38901;SDS011;24661;53.566;9.910;2023-03-31T05:10:05;18.13;;;7.67;;
38901;SDS011;24661;53.566;9.910;2023-03-31T05:12:35;18.37;;;7.47;;
38901;SDS011;24661;53.566;9.910;2023-03-31T05:15:02;15.87;;;7.53;;
38901;SDS011;24661;53.566;9.910;2023-03-31T05:17:32;15.47;;;7.00;;
38901;SDS011;24661;53.566;9.910;2023-03-31T05:19:59;22.40;;;7.83;;
38901;SDS011;24661;53.566;9.910;2023-03-31T05:22:25;18.23;;;6.90;;
38901;SDS011;24661;53.566;9.910;2023-03-31T05:24:51;16.73;;;6.50;;
38901;SDS011;24661;53.566;9.910;2023-03-31T05:27:17;14.47;;;7.17;;
38901;SDS011;24661;53.566;9.910;2023-03-31T05:29:45;15.63;;;7.07;;
38901;SDS011;24661;53.566;9.910;2023-03-31T05:32:11;19.37;;;8.27;;
38901;SDS011;24661;53.566;9.910;2023-03-31T05:34:36;17.53;;;7.43;;
38901;SDS011;24661;53.566;9.910;2023-03-31T05:37:02;19.63;;;8.47;;
38901;SDS011;24661;53.566;9.910;2023-03-31T05:39:27;16.90;;;7.10;;
38901;SDS011;24661;53.566;9.910;2023-03-31T05:41:57;18.27;;;7.27;;
38901;SDS011;24661;53.566;9.910;2023-03-31T05:44:23;12.27;;;6.57;;
38901;SDS011;24661;53.566;9.910;2023-03-31T05:46:51;15.87;;;7.07;;
38901;SDS011;24661;53.566;9.910;2023-03-31T05:49:17;20.93;;;7.63;;
38901;SDS011;24661;53.566;9.910;2023-03-31T05:51:43;13.17;;;7.17;;
38901;SDS011;24661;53.566;9.910;2023-03-31T05:54:09;16.73;;;7.27;;
38901;SDS011;24661;53.566;9.910;2023-03-31T05:56:35;14.07;;;6.93;;
38901;SDS011;24661;53.566;9.910;2023-03-31T05:59:01;17.73;;;8.80;;
38901;SDS011;24661;53.566;9.910;2023-03-31T06:01:26;22.27;;;9.23;;
38901;SDS011;24661;53.566;9.910;2023-03-31T06:03:53;18.07;;;7.40;;
38901;SDS011;24661;53.566;9.910;2023-03-31T06:06:19;16.00;;;6.70;;
38901;SDS011;24661;53.566;9.910;2023-03-31T06:08:45;19.60;;;8.50;;
38901;SDS011;24661;53.566;9.910;2023-03-31T06:11:16;20.93;;;8.13;;
38901;SDS011;24661;53.566;9.910;2023-03-31T06:13:46;23.50;;;7.00;;
38901;SDS011;24661;53.566;9.910;2023-03-31T06:16:14;12.57;;;6.57;;
38901;SDS011;24661;53.566;9.910;2023-03-31T06:18:41;18.10;;;6.47;;
38901;SDS011;24661;53.566;9.910;2023-03-31T06:21:07;11.93;;;5.83;;
38901;SDS011;24661;53.566;9.910;2023-03-31T06:23:41;22.13;;;8.10;;
38901;SDS011;24661;53.566;9.910;2023-03-31T06:26:11;14.43;;;6.10;;
38901;SDS011;24661;53.566;9.910;2023-03-31T06:28:42;12.00;;;5.97;;
38901;SDS011;24661;53.566;9.910;2023-03-31T06:31:09;15.70;;;6.17;;
38901;SDS011;24661;53.566;9.910;2023-03-31T06:33:37;15.30;;;5.83;;
38901;SDS011;24661;53.566;9.910;2023-03-31T06:36:04;15.23;;;6.47;;
38901;SDS011;24661;53.566;9.910;2023-03-31T06:38:31;12.73;;;6.10;;
38901;SDS011;24661;53.566;9.910;2023-03-31T06:41:01;17.63;;;6.00;;
38901;SDS011;24661;53.566;9.910;2023-03-31T06:43:27;14.17;;;6.00;;
38901;SDS011;24661;53.566;9.910;2023-03-31T06:45:53;15.37;;;6.47;;
38901;SDS011;24661;53.566;9.910;2023-03-31T06:48:20;16.60;;;6.80;;
38901;SDS011;24661;53.566;9.910;2023-03-31T06:50:46;23.07;;;6.17;;
38901;SDS011;24661;53.566;9.910;2023-03-31T06:53:12;13.73;;;5.70;;
38901;SDS011;24661;53.566;9.910;2023-03-31T06:55:38;16.30;;;5.60;;
38901;SDS011;24661;53.566;9.910;2023-03-31T06:58:04;13.60;;;6.13;;
38901;SDS011;24661;53.566;9.910;2023-03-31T07:00:30;18.23;;;7.13;;
38901;SDS011;24661;53.566;9.910;2023-03-31T07:02:57;14.70;;;5.67;;
38901;SDS011;24661;53.566;9.910;2023-03-31T07:05:23;10.93;;;5.17;;
38901;SDS011;24661;53.566;9.910;2023-03-31T07:07:55;17.37;;;6.50;;
38901;SDS011;24661;53.566;9.910;2023-03-31T07:10:23;12.20;;;5.70;;
38901;SDS011;24661;53.566;9.910;2023-03-31T07:12:50;11.07;;;5.77;;
38901;SDS011;24661;53.566;9.910;2023-03-31T07:15:16;19.47;;;5.63;;
38901;SDS011;24661;53.566;9.910;2023-03-31T07:17:42;9.83;;;5.50;;
38901;SDS011;24661;53.566;9.910;2023-03-31T07:20:11;9.77;;;5.50;;
38901;SDS011;24661;53.566;9.910;2023-03-31T07:22:42;15.70;;;5.10;;
38901;SDS011;24661;53.566;9.910;2023-03-31T07:25:09;13.10;;;4.60;;
38901;SDS011;24661;53.566;9.910;2023-03-31T07:27:36;13.53;;;6.10;;
38901;SDS011;24661;53.566;9.910;2023-03-31T07:30:03;21.60;;;5.77;;
38901;SDS011;24661;53.566;9.910;2023-03-31T07:32:30;13.13;;;5.07;;
38901;SDS011;24661;53.566;9.910;2023-03-31T07:34:57;11.67;;;5.30;;
38901;SDS011;24661;53.566;9.910;2023-03-31T07:37:23;11.27;;;5.13;;
38901;SDS011;24661;53.566;9.910;2023-03-31T07:39:48;11.73;;;4.53;;
38901;SDS011;24661;53.566;9.910;2023-03-31T07:42:14;16.67;;;5.50;;
38901;SDS011;24661;53.566;9.910;2023-03-31T07:44:40;12.40;;;5.20;;
38901;SDS011;24661;53.566;9.910;2023-03-31T07:47:05;12.73;;;4.77;;
38901;SDS011;24661;53.566;9.910;2023-03-31T07:49:31;12.00;;;4.17;;
38901;SDS011;24661;53.566;9.910;2023-03-31T07:51:58;16.10;;;4.90;;
38901;SDS011;24661;53.566;9.910;2023-03-31T07:54:23;12.70;;;4.63;;
38901;SDS011;24661;53.566;9.910;2023-03-31T07:56:49;11.17;;;4.70;;
38901;SDS011;24661;53.566;9.910;2023-03-31T07:59:15;12.27;;;4.47;;
38901;SDS011;24661;53.566;9.910;2023-03-31T08:01:40;12.87;;;4.90;;
38901;SDS011;24661;53.566;9.910;2023-03-31T08:04:06;9.57;;;5.03;;
38901;SDS011;24661;53.566;9.910;2023-03-31T08:06:34;11.17;;;4.20;;
38901;SDS011;24661;53.566;9.910;2023-03-31T08:09:00;14.40;;;6.13;;
38901;SDS011;24661;53.566;9.910;2023-03-31T08:11:26;9.13;;;4.37;;
38901;SDS011;24661;53.566;9.910;2023-03-31T08:13:52;9.67;;;4.27;;
38901;SDS011;24661;53.566;9.910;2023-03-31T08:16:18;10.57;;;4.20;;
38901;SDS011;24661;53.566;9.910;2023-03-31T08:18:44;9.27;;;4.30;;
38901;SDS011;24661;53.566;9.910;2023-03-31T08:21:10;5.77;;;3.80;;
38901;SDS011;24661;53.566;9.910;2023-03-31T08:23:36;12.03;;;4.63;;
38901;SDS011;24661;53.566;9.910;2023-03-31T08:28:37;10.80;;;4.30;;
38901;SDS011;24661;53.566;9.910;2023-03-31T08:31:06;9.40;;;4.87;;
38901;SDS011;24661;53.566;9.910;2023-03-31T08:33:33;5.83;;;3.27;;
38901;SDS011;24661;53.566;9.910;2023-03-31T08:36:08;9.33;;;3.57;;
38901;SDS011;24661;53.566;9.910;2023-03-31T08:38:37;10.50;;;3.83;;
38901;SDS011;24661;53.566;9.910;2023-03-31T08:41:52;11.43;;;3.30;;
38901;SDS011;24661;53.566;9.910;2023-03-31T08:44:12;7.53;;;3.40;;
38901;SDS011;24661;53.566;9.910;2023-03-31T08:46:41;9.33;;;3.17;;
38901;SDS011;24661;53.566;9.910;2023-03-31T08:49:08;9.17;;;3.37;;
38901;SDS011;24661;53.566;9.910;2023-03-31T08:51:40;3.70;;;2.40;;
38901;SDS011;24661;53.566;9.910;2023-03-31T08:55:02;8.53;;;3.27;;
38901;SDS011;24661;53.566;9.910;2023-03-31T08:57:27;10.93;;;3.17;;
38901;SDS011;24661;53.566;9.910;2023-03-31T09:00:18;7.20;;;2.97;;
38901;SDS011;24661;53.566;9.910;2023-03-31T09:05:56;5.67;;;2.90;;
38901;SDS011;24661;53.566;9.910;2023-03-31T09:08:40;7.80;;;2.80;;
38901;SDS011;24661;53.566;9.910;2023-03-31T09:11:12;7.03;;;2.97;;
38901;SDS011;24661;53.566;9.910;2023-03-31T09:16:52;7.90;;;3.00;;
38901;SDS011;24661;53.566;9.910;2023-03-31T09:19:44;7.00;;;3.00;;
38901;SDS011;24661;53.566;9.910;2023-03-31T09:22:24;8.97;;;2.70;;
38901;SDS011;24661;53.566;9.910;2023-03-31T09:27:36;6.80;;;2.57;;
38901;SDS011;24661;53.566;9.910;2023-03-31T09:32:39;6.50;;;2.57;;
38901;SDS011;24661;53.566;9.910;2023-03-31T09:35:19;6.93;;;2.50;;
38901;SDS011;24661;53.566;9.910;2023-03-31T09:37:46;5.73;;;2.50;;
38901;SDS011;24661;53.566;9.910;2023-03-31T09:40:17;6.90;;;2.33;;
38901;SDS011;24661;53.566;9.910;2023-03-31T09:42:46;6.13;;;2.13;;
38901;SDS011;24661;53.566;9.910;2023-03-31T09:45:30;8.50;;;2.40;;
38901;SDS011;24661;53.566;9.910;2023-03-31T09:48:00;8.63;;;2.90;;
38901;SDS011;24661;53.566;9.910;2023-03-31T09:50:32;6.40;;;2.50;;
38901;SDS011;24661;53.566;9.910;2023-03-31T09:53:09;5.63;;;3.20;;
38901;SDS011;24661;53.566;9.910;2023-03-31T09:55:43;7.10;;;3.10;;
38901;SDS011;24661;53.566;9.910;2023-03-31T09:58:14;5.03;;;2.70;;
38901;SDS011;24661;53.566;9.910;2023-03-31T10:00:41;5.53;;;2.50;;
38901;SDS011;24661;53.566;9.910;2023-03-31T10:03:21;6.70;;;2.43;;
38901;SDS011;24661;53.566;9.910;2023-03-31T10:05:51;5.97;;;2.30;;
38901;SDS011;24661;53.566;9.910;2023-03-31T10:08:21;7.83;;;2.90;;
38901;SDS011;24661;53.566;9.910;2023-03-31T10:10:52;7.80;;;3.30;;
38901;SDS011;24661;53.566;9.910;2023-03-31T10:13:40;4.10;;;2.50;;
38901;SDS011;24661;53.566;9.910;2023-03-31T10:16:22;7.50;;;3.67;;
38901;SDS011;24661;53.566;9.910;2023-03-31T10:19:23;3.57;;;2.93;;
38901;SDS011;24661;53.566;9.910;2023-03-31T10:21:57;7.37;;;3.43;;
38901;SDS011;24661;53.566;9.910;2023-03-31T10:24:25;6.80;;;3.13;;
38901;SDS011;24661;53.566;9.910;2023-03-31T10:27:01;9.50;;;4.77;;
38901;SDS011;24661;53.566;9.910;2023-03-31T10:29:30;5.77;;;3.00;;
38901;SDS011;24661;53.566;9.910;2023-03-31T10:32:08;7.20;;;3.57;;
38901;SDS011;24661;53.566;9.910;2023-03-31T10:35:21;8.07;;;2.90;;
38901;SDS011;24661;53.566;9.910;2023-03-31T10:37:47;8.77;;;3.17;;
38901;SDS011;24661;53.566;9.910;2023-03-31T10:40:18;5.97;;;2.83;;
38901;SDS011;24661;53.566;9.910;2023-03-31T10:43:01;7.70;;;2.97;;
38901;SDS011;24661;53.566;9.910;2023-03-31T10:45:28;4.27;;;2.40;;
38901;SDS011;24661;53.566;9.910;2023-03-31T10:48:00;9.83;;;2.77;;
38901;SDS011;24661;53.566;9.910;2023-03-31T10:50:27;4.53;;;2.87;;
38901;SDS011;24661;53.566;9.910;2023-03-31T10:52:59;6.80;;;2.63;;
38901;SDS011;24661;53.566;9.910;2023-03-31T10:58:36;5.03;;;2.17;;
38901;SDS011;24661;53.566;9.910;2023-03-31T11:13:02;6.10;;;2.67;;
38901;SDS011;24661;53.566;9.910;2023-03-31T11:15:18;11.13;;;4.17;;
38901;SDS011;24661;53.566;9.910;2023-03-31T11:42:46;7.00;;;2.87;;
38901;SDS011;24661;53.566;9.910;2023-03-31T11:45:51;7.23;;;2.20;;
38901;SDS011;24661;53.566;9.910;2023-03-31T11:51:06;3.03;;;1.73;;
38901;SDS011;24661;53.566;9.910;2023-03-31T11:53:43;5.27;;;2.00;;
38901;SDS011;24661;53.566;9.910;2023-03-31T11:56:10;5.23;;;2.33;;
38901;SDS011;24661;53.566;9.910;2023-03-31T11:58:50;7.43;;;2.67;;
38901;SDS011;24661;53.566;9.910;2023-03-31T12:01:24;5.90;;;1.83;;
38901;SDS011;24661;53.566;9.910;2023-03-31T12:03:59;6.27;;;2.17;;
38901;SDS011;24661;53.566;9.910;2023-03-31T12:06:32;4.33;;;2.03;;
38901;SDS011;24661;53.566;9.910;2023-03-31T12:09:04;6.70;;;2.67;;
38901;SDS011;24661;53.566;9.910;2023-03-31T12:14:13;5.80;;;2.17;;
38901;SDS011;24661;53.566;9.910;2023-03-31T12:19:46;7.97;;;3.03;;
38901;SDS011;24661;53.566;9.910;2023-03-31T12:22:29;5.13;;;3.17;;
38901;SDS011;24661;53.566;9.910;2023-03-31T12:25:02;5.67;;;2.90;;
38901;SDS011;24661;53.566;9.910;2023-03-31T12:27:36;8.27;;;2.80;;
38901;SDS011;24661;53.566;9.910;2023-03-31T12:32:58;10.43;;;3.57;;
38901;SDS011;24661;53.566;9.910;2023-03-31T12:35:33;7.30;;;3.90;;
38901;SDS011;24661;53.566;9.910;2023-03-31T12:43:47;10.63;;;3.83;;
38901;SDS011;24661;53.566;9.910;2023-03-31T12:57:47;9.47;;;4.60;;
38901;SDS011;24661;53.566;9.910;2023-03-31T13:00:21;11.77;;;4.33;;
38901;SDS011;24661;53.566;9.910;2023-03-31T13:02:49;6.40;;;3.03;;
38901;SDS011;24661;53.566;9.910;2023-03-31T13:08:03;8.43;;;3.60;;
38901;SDS011;24661;53.566;9.910;2023-03-31T13:10:32;4.07;;;3.03;;
38901;SDS011;24661;53.566;9.910;2023-03-31T13:13:02;8.43;;;3.70;;
38901;SDS011;24661;53.566;9.910;2023-03-31T13:15:46;7.60;;;3.83;;
38901;SDS011;24661;53.566;9.910;2023-03-31T13:18:20;6.20;;;4.30;;
38901;SDS011;24661;53.566;9.910;2023-03-31T13:20:57;7.23;;;4.23;;
38901;SDS011;24661;53.566;9.910;2023-03-31T13:23:24;11.17;;;4.37;;
38901;SDS011;24661;53.566;9.910;2023-03-31T13:25:51;9.17;;;4.07;;
38901;SDS011;24661;53.566;9.910;2023-03-31T13:30:50;10.73;;;4.50;;
38901;SDS011;24661;53.566;9.910;2023-03-31T13:39:41;9.07;;;3.37;;
38901;SDS011;24661;53.566;9.910;2023-03-31T13:59:20;7.97;;;2.80;;
38901;SDS011;24661;53.566;9.910;2023-03-31T14:02:26;5.70;;;3.00;;
38901;SDS011;24661;53.566;9.910;2023-03-31T14:08:10;4.50;;;2.80;;
38901;SDS011;24661;53.566;9.910;2023-03-31T14:10:53;2.50;;;1.77;;
38901;SDS011;24661;53.566;9.910;2023-03-31T14:13:19;3.20;;;1.90;;
38901;SDS011;24661;53.566;9.910;2023-03-31T14:15:50;4.07;;;2.20;;
38901;SDS011;24661;53.566;9.910;2023-03-31T14:18:34;3.63;;;1.50;;
38901;SDS011;24661;53.566;9.910;2023-03-31T14:24:07;1.73;;;1.17;;
38901;SDS011;24661;53.566;9.910;2023-03-31T14:37:48;2.77;;;1.30;;
38901;SDS011;24661;53.566;9.910;2023-03-31T14:40:15;4.97;;;2.60;;
38901;SDS011;24661;53.566;9.910;2023-03-31T14:42:42;3.37;;;1.90;;
38901;SDS011;24661;53.566;9.910;2023-03-31T14:47:52;3.50;;;2.00;;
38901;SDS011;24661;53.566;9.910;2023-03-31T14:50:19;7.03;;;3.10;;
38901;SDS011;24661;53.566;9.910;2023-03-31T14:52:46;1.93;;;1.67;;
38901;SDS011;24661;53.566;9.910;2023-03-31T14:55:13;1.40;;;1.20;;
38901;SDS011;24661;53.566;9.910;2023-03-31T14:57:40;3.57;;;2.13;;
38901;SDS011;24661;53.566;9.910;2023-03-31T15:00:11;2.03;;;1.83;;
38901;SDS011;24661;53.566;9.910;2023-03-31T15:02:42;7.93;;;2.67;;
38901;SDS011;24661;53.566;9.910;2023-03-31T15:05:13;6.53;;;2.10;;
38901;SDS011;24661;53.566;9.910;2023-03-31T15:07:57;3.27;;;1.87;;
38901;SDS011;24661;53.566;9.910;2023-03-31T15:10:23;3.40;;;1.80;;
38901;SDS011;24661;53.566;9.910;2023-03-31T15:12:49;4.03;;;2.37;;
38901;SDS011;24661;53.566;9.910;2023-03-31T15:15:16;3.03;;;1.70;;
38901;SDS011;24661;53.566;9.910;2023-03-31T15:17:45;3.07;;;2.50;;
38901;SDS011;24661;53.566;9.910;2023-03-31T15:22:55;1.77;;;1.33;;
38901;SDS011;24661;53.566;9.910;2023-03-31T15:25:27;2.20;;;1.23;;
38901;SDS011;24661;53.566;9.910;2023-03-31T15:28:15;1.10;;;1.00;;
38901;SDS011;24661;53.566;9.910;2023-03-31T15:30:42;1.70;;;0.93;;
38901;SDS011;24661;53.566;9.910;2023-03-31T15:33:16;2.83;;;1.27;;
38901;SDS011;24661;53.566;9.910;2023-03-31T15:35:45;3.63;;;1.00;;
38901;SDS011;24661;53.566;9.910;2023-03-31T15:38:12;3.93;;;1.63;;
38901;SDS011;24661;53.566;9.910;2023-03-31T15:40:41;3.73;;;1.37;;
38901;SDS011;24661;53.566;9.910;2023-03-31T15:45:49;1.47;;;1.10;;
38901;SDS011;24661;53.566;9.910;2023-03-31T15:48:17;3.10;;;0.80;;
38901;SDS011;24661;53.566;9.910;2023-03-31T15:53:42;3.63;;;0.87;;
38901;SDS011;24661;53.566;9.910;2023-03-31T15:56:58;1.70;;;1.03;;
38901;SDS011;24661;53.566;9.910;2023-03-31T15:59:22;1.70;;;1.20;;
38901;SDS011;24661;53.566;9.910;2023-03-31T16:01:49;2.97;;;0.90;;
38901;SDS011;24661;53.566;9.910;2023-03-31T16:04:16;1.97;;;1.13;;
38901;SDS011;24661;53.566;9.910;2023-03-31T16:06:46;1.73;;;1.13;;
38901;SDS011;24661;53.566;9.910;2023-03-31T16:09:21;1.53;;;1.13;;
38901;SDS011;24661;53.566;9.910;2023-03-31T16:11:58;1.53;;;1.43;;
38901;SDS011;24661;53.566;9.910;2023-03-31T16:14:30;2.63;;;1.50;;
38901;SDS011;24661;53.566;9.910;2023-03-31T16:17:03;2.30;;;1.70;;
38901;SDS011;24661;53.566;9.910;2023-03-31T16:19:43;2.17;;;1.70;;
38901;SDS011;24661;53.566;9.910;2023-03-31T16:22:19;3.13;;;1.77;;
38901;SDS011;24661;53.566;9.910;2023-03-31T16:24:49;2.07;;;1.40;;
38901;SDS011;24661;53.566;9.910;2023-03-31T16:27:16;3.33;;;1.50;;
38901;SDS011;24661;53.566;9.910;2023-03-31T16:29:42;3.47;;;1.83;;
38901;SDS011;24661;53.566;9.910;2023-03-31T16:32:14;2.07;;;1.63;;
38901;SDS011;24661;53.566;9.910;2023-03-31T16:34:54;1.63;;;1.53;;
38901;SDS011;24661;53.566;9.910;2023-03-31T16:37:24;2.63;;;1.60;;
38901;SDS011;24661;53.566;9.910;2023-03-31T16:39:51;1.97;;;1.47;;
38901;SDS011;24661;53.566;9.910;2023-03-31T16:42:17;3.07;;;1.50;;
38901;SDS011;24661;53.566;9.910;2023-03-31T16:44:44;3.93;;;2.10;;
38901;SDS011;24661;53.566;9.910;2023-03-31T16:47:10;3.23;;;2.03;;
38901;SDS011;24661;53.566;9.910;2023-03-31T16:49:37;2.13;;;1.93;;
38901;SDS011;24661;53.566;9.910;2023-03-31T16:52:03;4.70;;;2.07;;
38901;SDS011;24661;53.566;9.910;2023-03-31T16:54:29;2.80;;;2.20;;
38901;SDS011;24661;53.566;9.910;2023-03-31T16:56:58;3.43;;;1.70;;
38901;SDS011;24661;53.566;9.910;2023-03-31T16:59:24;5.10;;;1.90;;
38901;SDS011;24661;53.566;9.910;2023-03-31T17:01:49;3.53;;;2.17;;
38901;SDS011;24661;53.566;9.910;2023-03-31T17:04:16;2.77;;;1.73;;
38901;SDS011;24661;53.566;9.910;2023-03-31T17:06:42;4.20;;;2.63;;
38901;SDS011;24661;53.566;9.910;2023-03-31T17:09:08;4.37;;;2.30;;
38901;SDS011;24661;53.566;9.910;2023-03-31T17:11:34;2.80;;;2.10;;
38901;SDS011;24661;53.566;9.910;2023-03-31T17:14:00;4.50;;;2.40;;
38901;SDS011;24661;53.566;9.910;2023-03-31T17:16:26;3.07;;;2.67;;
38901;SDS011;24661;53.566;9.910;2023-03-31T17:18:51;3.93;;;2.23;;
38901;SDS011;24661;53.566;9.910;2023-03-31T17:21:18;2.30;;;2.00;;
38901;SDS011;24661;53.566;9.910;2023-03-31T17:23:44;2.10;;;1.90;;
38901;SDS011;24661;53.566;9.910;2023-03-31T17:26:11;6.67;;;2.30;;
38901;SDS011;24661;53.566;9.910;2023-03-31T17:28:37;3.20;;;2.20;;
38901;SDS011;24661;53.566;9.910;2023-03-31T17:31:12;2.93;;;2.50;;
38901;SDS011;24661;53.566;9.910;2023-03-31T17:33:39;4.60;;;2.03;;
38901;SDS011;24661;53.566;9.910;2023-03-31T17:36:06;2.53;;;1.87;;
38901;SDS011;24661;53.566;9.910;2023-03-31T17:38:31;2.00;;;1.40;;
38901;SDS011;24661;53.566;9.910;2023-03-31T17:41:05;2.50;;;1.73;;
38901;SDS011;24661;53.566;9.910;2023-03-31T17:43:32;5.93;;;2.50;;
38901;SDS011;24661;53.566;9.910;2023-03-31T17:46:03;2.70;;;1.60;;
38901;SDS011;24661;53.566;9.910;2023-03-31T17:48:31;3.93;;;2.13;;
38901;SDS011;24661;53.566;9.910;2023-03-31T17:51:02;5.33;;;2.20;;
38901;SDS011;24661;53.566;9.910;2023-03-31T17:53:29;4.47;;;2.50;;
38901;SDS011;24661;53.566;9.910;2023-03-31T17:55:55;4.13;;;2.70;;
38901;SDS011;24661;53.566;9.910;2023-03-31T17:58:21;4.10;;;2.57;;
38901;SDS011;24661;53.566;9.910;2023-03-31T18:00:47;4.00;;;2.77;;
38901;SDS011;24661;53.566;9.910;2023-03-31T18:03:12;7.50;;;3.43;;
38901;SDS011;24661;53.566;9.910;2023-03-31T18:05:38;6.17;;;3.20;;
38901;SDS011;24661;53.566;9.910;2023-03-31T18:08:05;6.53;;;3.80;;